Time;durP1;ratioP1;P1;durP2;ratioP2;P2;SDS_P1;SDS_P2;PMS_P1;PMS_P2;Temp;Humidity;BMP_temperature;BMP_pressure;BME280_temperature;BME280_humidity;BME280_pressure;Samples;Min_cycle;Max_cycle;Signal;HPM_P1;HPM_P2
2023/09/14 00:01:24;;;;;;;6.13;2.60;;;14.30;99.90;;;;;;5053946;28;21004;-76
2023/09/14 00:03:52;;;;;;;7.83;3.17;;;14.30;99.90;;;;;;5054333;28;20440;-76
2023/09/14 00:06:18;;;;;;;4.40;2.77;;;14.20;99.90;;;;;;5053974;28;20467;-76
2023/09/14 00:08:46;;;;;;;4.60;3.30;;;14.20;99.90;;;;;;5052893;28;20779;-75
2023/09/14 00:11:13;;;;;;;4.07;3.10;;;14.20;99.90;;;;;;5052514;28;20500;-75
2023/09/14 00:13:40;;;;;;;5.50;3.67;;;14.10;99.90;;;;;;5054041;28;20457;-76
2023/09/14 00:16:06;;;;;;;8.33;3.77;;;14.00;99.90;;;;;;5054859;28;20905;-77
2023/09/14 00:18:33;;;;;;;6.23;3.57;;;13.90;99.90;;;;;;5054144;28;20496;-77
2023/09/14 00:21:00;;;;;;;8.20;3.33;;;13.90;99.90;;;;;;5054671;28;20500;-76
2023/09/14 00:23:26;;;;;;;4.07;3.60;;;14.00;99.90;;;;;;5053705;28;20431;-76
2023/09/14 00:25:54;;;;;;;6.47;3.60;;;13.90;99.90;;;;;;5054275;28;20480;-78
2023/09/14 00:28:21;;;;;;;5.37;3.60;;;13.90;99.90;;;;;;5055247;28;20423;-75
2023/09/14 00:30:51;;;;;;;7.57;3.67;;;13.90;99.90;;;;;;5054464;28;20423;-76
2023/09/14 00:33:18;;;;;;;6.60;3.67;;;13.70;99.90;;;;;;5056366;28;20435;-77
2023/09/14 00:35:46;;;;;;;4.77;3.73;;;13.60;99.90;;;;;;5055793;28;20430;-76
2023/09/14 00:38:13;;;;;;;10.20;3.70;;;13.60;99.90;;;;;;5055764;28;20538;-75
2023/09/14 00:40:39;;;;;;;9.47;3.33;;;13.60;99.90;;;;;;5055190;28;20439;-76
2023/09/14 00:43:08;;;;;;;4.73;3.50;;;13.60;99.90;;;;;;5055255;28;20431;-76
2023/09/14 00:45:34;;;;;;;4.87;3.40;;;13.60;99.90;;;;;;5055771;28;20434;-77
2023/09/14 00:48:02;;;;;;;4.27;3.03;;;13.60;99.90;;;;;;5056196;28;20477;-76
2023/09/14 00:50:30;;;;;;;10.80;3.00;;;13.60;99.90;;;;;;5056078;28;20506;-76
2023/09/14 00:53:00;;;;;;;7.33;3.73;;;13.60;99.90;;;;;;5055966;28;20476;-78
2023/09/14 00:55:28;;;;;;;14.27;3.30;;;13.60;99.90;;;;;;5055376;28;20458;-76
2023/09/14 00:57:56;;;;;;;4.80;3.83;;;13.60;99.90;;;;;;5055117;28;21041;-76
2023/09/14 01:00:25;;;;;;;8.50;3.80;;;13.60;99.90;;;;;;5054520;28;20422;-79
2023/09/14 01:02:54;;;;;;;7.73;3.77;;;13.50;99.90;;;;;;5055218;28;20451;-76
2023/09/14 01:05:22;;;;;;;7.50;3.40;;;13.40;99.90;;;;;;5055883;28;20427;-78
2023/09/14 01:07:49;;;;;;;4.20;3.50;;;13.40;99.90;;;;;;5055091;28;20897;-76
2023/09/14 01:10:15;;;;;;;4.67;3.40;;;13.30;99.90;;;;;;5054878;28;20423;-77
2023/09/14 01:12:42;;;;;;;6.57;3.70;;;13.30;99.90;;;;;;5054388;28;20447;-76
2023/09/14 01:15:15;;;;;;;4.70;3.40;;;13.30;99.90;;;;;;5055123;28;20481;-76
2023/09/14 01:17:55;;;;;;;5.10;3.40;;;13.30;99.90;;;;;;5054724;28;20458;-75
2023/09/14 01:20:38;;;;;;;5.20;3.30;;;13.20;99.90;;;;;;5054615;28;20499;-75
2023/09/14 01:23:18;;;;;;;6.33;3.43;;;13.10;99.90;;;;;;5049262;28;20965;-76
2023/09/14 01:25:48;;;;;;;9.20;3.20;;;13.10;99.90;;;;;;5054591;28;20448;-76
2023/09/14 01:28:16;;;;;;;7.20;3.20;;;13.10;99.90;;;;;;5055199;28;20425;-76
2023/09/14 01:30:42;;;;;;;6.10;3.20;;;13.10;99.90;;;;;;5055002;28;20423;-77
2023/09/14 01:33:11;;;;;;;5.17;2.87;;;13.10;99.90;;;;;;5054507;28;20531;-76
2023/09/14 01:35:45;;;;;;;7.13;3.30;;;13.10;99.90;;;;;;5054163;28;20412;-76
2023/09/14 01:38:13;;;;;;;5.53;3.20;;;13.00;99.90;;;;;;5053950;28;20520;-76
2023/09/14 01:40:43;;;;;;;7.23;2.90;;;13.00;99.90;;;;;;5055136;28;20950;-76
2023/09/14 01:43:12;;;;;;;7.47;3.27;;;13.00;99.90;;;;;;5055071;28;20460;-76
2023/09/14 01:45:39;;;;;;;7.80;3.37;;;13.00;99.90;;;;;;5054354;28;20511;-76
2023/09/14 01:48:06;;;;;;;5.07;3.03;;;13.00;99.90;;;;;;5054681;28;20627;-76
2023/09/14 01:50:33;;;;;;;6.17;3.30;;;13.00;99.90;;;;;;5054875;28;20464;-78
2023/09/14 01:53:00;;;;;;;3.63;3.07;;;13.00;99.90;;;;;;5054856;28;20819;-76
2023/09/14 01:55:27;;;;;;;4.83;3.40;;;13.00;99.90;;;;;;5055411;28;20912;-76
2023/09/14 01:57:53;;;;;;;5.63;3.70;;;12.90;99.90;;;;;;5054275;28;20866;-76
2023/09/14 02:00:22;;;;;;;7.00;3.60;;;12.90;99.90;;;;;;5055653;28;20514;-76
2023/09/14 02:02:50;;;;;;;3.33;3.03;;;12.90;99.90;;;;;;5053676;28;20526;-76
2023/09/14 02:05:17;;;;;;;7.30;3.63;;;12.80;99.90;;;;;;5054047;28;20452;-77
2023/09/14 02:07:43;;;;;;;4.43;3.23;;;12.90;99.90;;;;;;5051660;28;20453;-76
2023/09/14 02:10:10;;;;;;;6.23;3.27;;;12.80;99.90;;;;;;5050048;28;20431;-75
2023/09/14 02:12:37;;;;;;;5.77;3.80;;;12.80;99.90;;;;;;5053467;28;20989;-76
2023/09/14 02:15:04;;;;;;;7.10;4.00;;;12.70;99.90;;;;;;5053264;28;20514;-75
2023/09/14 02:17:32;;;;;;;12.23;4.10;;;12.70;99.90;;;;;;5053397;28;20504;-77
2023/09/14 02:19:59;;;;;;;6.53;3.63;;;12.70;99.90;;;;;;5053713;28;20522;-76
2023/09/14 02:22:25;;;;;;;5.77;3.53;;;12.70;99.90;;;;;;5054693;28;20891;-76
2023/09/14 02:24:52;;;;;;;11.03;3.60;;;12.70;99.90;;;;;;5053991;28;20441;-75
2023/09/14 02:27:19;;;;;;;3.93;2.80;;;12.70;99.90;;;;;;5053719;28;20444;-75
2023/09/14 02:29:45;;;;;;;9.37;4.00;;;12.60;99.90;;;;;;5053976;28;20456;-78
2023/09/14 02:32:12;;;;;;;5.83;3.63;;;12.60;99.90;;;;;;5053969;28;20810;-76
2023/09/14 02:34:40;;;;;;;5.93;3.57;;;12.50;99.90;;;;;;5053473;28;20510;-76
2023/09/14 02:37:06;;;;;;;6.17;3.33;;;12.50;99.90;;;;;;5054061;28;20448;-76
2023/09/14 02:39:33;;;;;;;8.20;3.57;;;12.40;99.90;;;;;;5052699;28;20561;-76
2023/09/14 02:42:00;;;;;;;4.83;3.33;;;12.40;99.90;;;;;;5053232;28;20530;-76
2023/09/14 02:44:26;;;;;;;6.63;3.63;;;12.40;99.90;;;;;;5053314;28;20456;-77
2023/09/14 02:46:53;;;;;;;5.50;3.40;;;12.40;99.90;;;;;;5054897;28;20487;-75
2023/09/14 02:49:19;;;;;;;9.53;4.03;;;12.40;99.90;;;;;;5045373;28;20457;-76
2023/09/14 02:51:47;;;;;;;6.70;3.90;;;12.40;99.90;;;;;;5052914;28;20476;-76
2023/09/14 02:54:14;;;;;;;4.77;3.70;;;12.40;99.90;;;;;;5054595;28;20449;-76
2023/09/14 02:56:41;;;;;;;8.57;4.50;;;12.50;99.90;;;;;;5052655;28;20427;-76
2023/09/14 02:59:08;;;;;;;7.20;4.30;;;12.50;99.90;;;;;;5053755;28;20934;-75
2023/09/14 03:01:34;;;;;;;11.50;4.47;;;12.50;99.90;;;;;;5052414;28;20477;-76
2023/09/14 03:04:01;;;;;;;9.13;4.40;;;12.50;99.90;;;;;;5053472;28;20456;-78
2023/09/14 03:06:29;;;;;;;6.30;4.30;;;12.60;99.90;;;;;;5054505;28;20506;-76
2023/09/14 03:08:57;;;;;;;5.40;3.77;;;12.60;99.90;;;;;;5056631;28;20431;-76
2023/09/14 03:11:24;;;;;;;6.10;4.47;;;12.70;99.90;;;;;;5055939;28;21051;-79
2023/09/14 03:13:50;;;;;;;6.43;4.03;;;12.70;99.90;;;;;;5056780;28;20449;-76
2023/09/14 03:16:17;;;;;;;15.33;4.20;;;12.70;99.90;;;;;;5057189;28;20460;-76
2023/09/14 03:18:44;;;;;;;4.83;3.90;;;12.70;99.90;;;;;;5057437;28;20496;-78
2023/09/14 03:21:23;;;;;;;8.67;4.30;;;12.70;99.90;;;;;;5055396;28;20468;-76
2023/09/14 03:23:50;;;;;;;5.63;3.47;;;12.70;99.90;;;;;;5055480;28;20548;-76
2023/09/14 03:26:18;;;;;;;5.47;3.53;;;12.70;99.90;;;;;;5055744;28;20452;-77
2023/09/14 03:28:45;;;;;;;10.67;4.20;;;12.70;99.90;;;;;;5054623;28;20444;-78
2023/09/14 03:31:11;;;;;;;7.57;2.83;;;12.70;99.90;;;;;;5054796;28;20534;-76
2023/09/14 03:33:38;;;;;;;9.03;3.50;;;12.70;99.90;;;;;;5055578;28;20427;-76
2023/09/14 03:36:05;;;;;;;4.10;3.40;;;12.70;99.90;;;;;;5056221;28;20445;-76
2023/09/14 03:38:32;;;;;;;5.57;3.63;;;12.60;99.90;;;;;;5056557;28;20492;-77
2023/09/14 03:40:58;;;;;;;10.07;3.77;;;12.60;99.90;;;;;;5057950;28;20477;-76
2023/09/14 03:43:26;;;;;;;4.90;3.30;;;12.50;99.90;;;;;;5055624;28;20464;-78
2023/09/14 03:45:53;;;;;;;9.33;3.20;;;12.50;99.90;;;;;;5055582;28;20852;-76
2023/09/14 03:48:20;;;;;;;5.67;3.40;;;12.40;99.90;;;;;;5056002;28;20518;-78
2023/09/14 03:50:46;;;;;;;7.60;3.53;;;12.40;99.90;;;;;;5056339;28;20920;-77
2023/09/14 03:53:13;;;;;;;8.00;4.00;;;12.40;99.90;;;;;;5057016;28;20449;-76
2023/09/14 03:55:39;;;;;;;6.23;3.67;;;12.30;99.90;;;;;;5057496;28;20457;-76
2023/09/14 03:58:06;;;;;;;7.17;4.07;;;12.20;99.90;;;;;;5056326;28;20492;-78
2023/09/14 04:00:34;;;;;;;6.00;3.50;;;12.20;99.90;;;;;;5057348;28;20426;-77
2023/09/14 04:03:01;;;;;;;5.97;3.90;;;12.20;99.90;;;;;;5061101;28;20468;-76
2023/09/14 04:05:28;;;;;;;3.80;3.40;;;12.20;99.90;;;;;;5060246;28;21011;-77
2023/09/14 04:07:55;;;;;;;6.17;4.13;;;12.20;99.90;;;;;;5059990;28;20460;-76
2023/09/14 04:10:22;;;;;;;5.83;3.47;;;12.20;99.90;;;;;;5060651;28;20460;-76
2023/09/14 04:12:50;;;;;;;6.50;3.40;;;12.20;99.90;;;;;;5058316;28;20480;-77
2023/09/14 04:15:16;;;;;;;6.63;3.50;;;12.10;99.90;;;;;;5059078;28;20725;-76
2023/09/14 04:17:44;;;;;;;9.80;4.03;;;12.10;99.90;;;;;;5059171;28;20490;-76
2023/09/14 04:20:11;;;;;;;8.37;4.47;;;12.00;99.90;;;;;;5059692;28;20502;-77
2023/09/14 04:22:39;;;;;;;8.53;3.77;;;12.00;99.90;;;;;;5058806;28;20491;-76
2023/09/14 04:25:07;;;;;;;9.50;4.10;;;12.00;99.90;;;;;;5059388;28;20456;-77
2023/09/14 04:27:33;;;;;;;5.90;4.30;;;12.00;99.90;;;;;;5058908;28;20451;-78
2023/09/14 04:30:00;;;;;;;8.03;4.43;;;12.00;99.90;;;;;;5058089;28;20853;-76
2023/09/14 04:32:27;;;;;;;5.60;4.57;;;11.90;99.90;;;;;;5058746;28;21066;-76
2023/09/14 04:34:55;;;;;;;7.73;5.10;;;11.90;99.90;;;;;;5057608;28;20509;-76
2023/09/14 04:37:21;;;;;;;14.53;5.70;;;11.80;99.90;;;;;;5058350;28;20448;-76
2023/09/14 04:39:48;;;;;;;6.70;5.13;;;11.80;99.90;;;;;;5058365;28;20494;-78
2023/09/14 04:42:15;;;;;;;9.50;5.73;;;11.80;99.90;;;;;;5058191;28;20468;-76
2023/09/14 04:44:41;;;;;;;9.20;6.40;;;11.80;99.90;;;;;;5059172;28;20448;-76
2023/09/14 04:47:08;;;;;;;13.80;6.33;;;11.70;99.90;;;;;;5058224;28;20452;-77
2023/09/14 04:49:34;;;;;;;15.30;6.50;;;11.70;99.90;;;;;;5058184;28;20456;-78
2023/09/14 04:52:03;;;;;;;9.33;6.30;;;11.70;99.90;;;;;;5058670;28;20472;-76
2023/09/14 04:54:29;;;;;;;12.43;6.60;;;11.70;99.90;;;;;;5059723;28;20515;-76
2023/09/14 04:56:56;;;;;;;17.80;7.30;;;11.70;99.90;;;;;;5057241;28;20448;-77
2023/09/14 04:59:24;;;;;;;7.97;5.40;;;11.70;99.90;;;;;;5057622;28;20488;-76
2023/09/14 05:01:51;;;;;;;8.87;6.50;;;11.70;99.90;;;;;;5057339;28;20468;-76
2023/09/14 05:04:17;;;;;;;10.10;6.63;;;11.60;99.90;;;;;;5056396;28;20950;-76
2023/09/14 05:06:44;;;;;;;11.90;7.00;;;11.60;99.90;;;;;;5056482;28;20431;-76
2023/09/14 05:09:12;;;;;;;11.27;8.30;;;11.60;99.90;;;;;;5057181;28;20452;-76
2023/09/14 05:11:39;;;;;;;12.73;7.80;;;11.60;99.90;;;;;;5058232;28;20900;-78
2023/09/14 05:14:05;;;;;;;9.87;7.97;;;11.60;99.90;;;;;;5057246;28;20502;-76
2023/09/14 05:16:32;;;;;;;10.80;8.13;;;11.70;99.90;;;;;;5060236;28;20521;-77
2023/09/14 05:18:58;;;;;;;8.37;6.90;;;11.70;99.90;;;;;;5060890;28;20511;-76
2023/09/14 05:21:25;;;;;;;11.33;7.10;;;11.80;99.90;;;;;;5061255;28;20498;-76
2023/09/14 05:23:52;;;;;;;13.23;7.30;;;11.80;99.90;;;;;;5054852;28;20448;-75
2023/09/14 05:26:20;;;;;;;18.50;7.37;;;11.90;99.90;;;;;;5052694;28;20938;-76
2023/09/14 05:28:46;;;;;;;16.03;7.87;;;11.90;99.90;;;;;;5052616;28;20473;-75
2023/09/14 05:31:13;;;;;;;14.10;8.40;;;11.90;99.90;;;;;;5052474;28;20472;-75
2023/09/14 05:33:40;;;;;;;13.20;7.83;;;11.90;99.90;;;;;;5052649;28;20488;-75
2023/09/14 05:36:06;;;;;;;12.30;6.90;;;12.00;99.90;;;;;;5052406;28;20497;-75
2023/09/14 05:38:33;;;;;;;13.47;7.40;;;12.10;99.90;;;;;;5052577;28;20534;-76
2023/09/14 05:41:00;;;;;;;10.13;6.40;;;12.30;99.90;;;;;;5052948;28;20440;-76
2023/09/14 05:43:28;;;;;;;13.47;7.50;;;12.60;99.90;;;;;;5052109;28;21003;-75
2023/09/14 05:45:54;;;;;;;11.03;6.70;;;13.00;99.90;;;;;;5052655;28;20452;-75
2023/09/14 05:48:21;;;;;;;10.03;6.03;;;13.40;99.90;;;;;;5052229;28;20452;-75
2023/09/14 05:50:48;;;;;;;10.30;6.87;;;13.70;99.90;;;;;;5052274;28;21021;-76
2023/09/14 05:53:14;;;;;;;7.77;5.60;;;14.00;99.90;;;;;;5052499;28;20452;-76
2023/09/14 05:55:41;;;;;;;11.00;6.37;;;14.40;99.90;;;;;;5052043;28;21000;-75
2023/09/14 05:58:07;;;;;;;8.10;5.73;;;14.80;99.90;;;;;;5051853;28;20510;-75
2023/09/14 06:00:35;;;;;;;11.50;5.93;;;15.10;99.90;;;;;;5067396;28;20519;-79
2023/09/14 06:03:02;;;;;;;25.77;6.73;;;15.40;99.90;;;;;;5069292;28;20491;-77
2023/09/14 06:05:29;;;;;;;9.00;5.33;;;15.60;99.90;;;;;;5070124;28;20457;-76
2023/09/14 06:07:55;;;;;;;8.10;5.27;;;15.90;99.90;;;;;;5070214;28;20449;-77
2023/09/14 06:10:22;;;;;;;11.80;5.30;;;16.20;99.90;;;;;;5069503;28;20419;-76
2023/09/14 06:12:50;;;;;;;8.80;4.60;;;16.60;99.90;;;;;;5068543;28;20908;-78
2023/09/14 06:15:16;;;;;;;11.13;5.00;;;16.90;99.90;;;;;;5069630;28;20474;-77
2023/09/14 06:17:44;;;;;;;10.70;5.23;;;17.10;99.90;;;;;;5069583;28;20427;-77
2023/09/14 06:20:12;;;;;;;6.33;4.70;;;17.30;99.90;;;;;;5068013;28;20463;-76
2023/09/14 06:22:39;;;;;;;8.00;5.30;;;17.50;99.90;;;;;;5065986;28;20464;-76
2023/09/14 06:25:06;;;;;;;10.37;5.10;;;17.60;99.90;;;;;;5066455;28;20458;-77
2023/09/14 06:27:34;;;;;;;8.17;5.20;;;18.00;99.90;;;;;;5068087;28;20542;-77
2023/09/14 06:30:00;;;;;;;12.50;5.63;;;18.30;99.90;;;;;;5063701;28;20423;-77
2023/09/14 06:32:27;;;;;;;12.83;5.47;;;18.50;99.90;;;;;;5061567;28;20514;-77
2023/09/14 06:34:55;;;;;;;8.50;4.80;;;18.50;99.90;;;;;;5059437;28;20481;-76
2023/09/14 06:37:21;;;;;;;9.60;5.57;;;18.60;99.90;;;;;;5058031;28;20445;-76
2023/09/14 06:39:48;;;;;;;9.80;4.80;;;18.80;99.90;;;;;;5061455;28;20484;-77
2023/09/14 06:42:15;;;;;;;5.40;4.73;;;19.00;99.90;;;;;;5063517;28;20837;-76
2023/09/14 06:44:41;;;;;;;7.43;4.03;;;19.30;99.90;;;;;;5064321;28;20423;-77
2023/09/14 06:47:08;;;;;;;4.60;4.10;;;19.70;99.90;;;;;;5060721;28;20510;-76
2023/09/14 06:49:34;;;;;;;6.53;4.00;;;19.90;99.90;;;;;;5063200;28;20441;-77
2023/09/14 06:52:03;;;;;;;6.47;4.10;;;20.40;99.90;;;;;;5062307;28;20464;-76
2023/09/14 06:54:29;;;;;;;5.07;3.60;;;20.50;99.90;;;;;;5062985;28;20210;-76
2023/09/14 06:56:56;;;;;;;7.40;3.50;;;20.50;99.90;;;;;;5063882;28;20455;-76
2023/09/14 06:59:23;;;;;;;5.80;3.50;;;20.80;99.90;;;;;;5061053;28;20463;-76
2023/09/14 07:01:50;;;;;;;7.33;3.73;;;20.50;99.90;;;;;;5054398;28;20846;-78
2023/09/14 07:04:16;;;;;;;6.90;3.90;;;20.20;99.90;;;;;;5062065;28;20548;-76
2023/09/14 07:06:43;;;;;;;9.53;3.47;;;20.00;99.90;;;;;;5059341;28;20460;-76
2023/09/14 07:09:11;;;;;;;8.27;3.37;;;19.80;99.90;;;;;;5057005;28;20444;-77
2023/09/14 07:11:38;;;;;;;6.20;3.43;;;19.50;99.90;;;;;;5058255;28;20476;-77
2023/09/14 07:14:05;;;;;;;6.73;3.10;;;19.30;99.90;;;;;;5063164;28;20447;-76
2023/09/14 07:16:32;;;;;;;3.43;3.00;;;19.20;99.90;;;;;;5062656;28;20448;-76
2023/09/14 07:18:59;;;;;;;8.23;3.57;;;19.20;99.90;;;;;;5059572;28;20525;-76
2023/09/14 07:21:27;;;;;;;7.17;3.57;;;19.30;99.90;;;;;;5056676;28;20994;-76
2023/09/14 07:23:53;;;;;;;5.53;3.63;;;19.40;99.90;;;;;;5054918;28;20888;-76
2023/09/14 07:26:21;;;;;;;7.60;3.70;;;19.40;99.90;;;;;;5054186;28;20950;-75
2023/09/14 07:28:48;;;;;;;5.43;3.80;;;19.30;99.90;;;;;;5055878;28;20463;-76
2023/09/14 07:31:15;;;;;;;7.30;4.00;;;19.30;99.90;;;;;;5057369;28;20475;-76
2023/09/14 07:33:41;;;;;;;6.20;3.80;;;19.40;99.90;;;;;;5055694;28;20452;-76
2023/09/14 07:36:08;;;;;;;3.47;3.17;;;19.50;99.90;;;;;;5058710;28;20456;-76
2023/09/14 07:38:34;;;;;;;5.33;3.10;;;19.50;99.90;;;;;;5060852;28;20448;-76
2023/09/14 07:41:01;;;;;;;3.67;3.00;;;19.50;99.90;;;;;;5060464;28;20504;-76
2023/09/14 07:43:29;;;;;;;3.27;2.97;;;19.60;99.90;;;;;;5066099;28;20448;-77
2023/09/14 07:45:56;;;;;;;5.80;3.40;;;19.70;99.90;;;;;;5064389;28;20664;-76
2023/09/14 07:48:23;;;;;;;5.53;3.67;;;19.90;99.90;;;;;;5058360;28;20521;-76
2023/09/14 07:50:50;;;;;;;7.17;3.70;;;19.90;99.90;;;;;;5061779;28;20448;-76
2023/09/14 07:53:17;;;;;;;6.60;3.00;;;20.00;99.90;;;;;;5060201;28;20456;-76
2023/09/14 07:55:45;;;;;;;7.57;3.00;;;20.10;99.90;;;;;;5060421;28;20460;-77
2023/09/14 07:58:11;;;;;;;6.50;3.20;;;20.30;99.90;;;;;;5058294;28;20480;-76
2023/09/14 08:00:40;;;;;;;5.87;3.70;;;20.30;99.90;;;;;;5058112;28;20906;-77
2023/09/14 08:03:09;;;;;;;7.00;3.60;;;20.20;99.90;;;;;;5059615;28;20452;-77
2023/09/14 08:05:36;;;;;;;7.07;3.77;;;20.30;99.90;;;;;;5058328;28;20822;-76
2023/09/14 08:08:04;;;;;;;5.70;4.10;;;20.40;99.90;;;;;;5069754;28;20821;-77
2023/09/14 08:10:31;;;;;;;8.90;3.60;;;20.60;99.90;;;;;;5071612;28;20862;-76
2023/09/14 08:12:58;;;;;;;6.27;3.73;;;20.90;99.90;;;;;;5065052;28;20563;-76
2023/09/14 08:15:25;;;;;;;7.93;3.63;;;21.10;99.90;;;;;;5060645;28;20638;-76
2023/09/14 08:17:53;;;;;;;10.20;3.70;;;21.30;99.90;;;;;;5059534;28;20860;-76
2023/09/14 08:20:19;;;;;;;8.67;3.87;;;21.30;99.90;;;;;;5059229;28;20546;-76
2023/09/14 08:22:47;;;;;;;4.83;3.43;;;21.30;99.90;;;;;;5057736;28;20475;-76
2023/09/14 08:25:15;;;;;;;5.00;3.57;;;21.40;99.90;;;;;;5057636;28;20938;-76
2023/09/14 08:27:43;;;;;;;8.63;3.80;;;21.40;99.90;;;;;;5061632;28;20506;-76
2023/09/14 08:30:11;;;;;;;6.90;3.60;;;21.30;99.90;;;;;;5062371;28;20523;-77
2023/09/14 08:32:38;;;;;;;5.90;3.57;;;21.40;99.90;;;;;;5067830;28;20472;-77
2023/09/14 08:35:21;;;;;;;11.53;3.77;;;21.60;99.90;;;;;;5063509;28;20456;-76
2023/09/14 08:37:48;;;;;;;7.37;3.03;;;21.90;99.90;;;;;;5063985;28;20443;-75
2023/09/14 08:40:15;;;;;;;7.67;3.50;;;22.10;99.90;;;;;;5058380;28;20866;-76
2023/09/14 08:42:43;;;;;;;6.60;3.57;;;22.10;99.90;;;;;;5058434;28;20529;-76
2023/09/14 08:45:13;;;;;;;6.03;3.43;;;22.20;99.90;;;;;;5063079;28;20456;-76
2023/09/14 08:47:42;;;;;;;10.67;3.80;;;22.20;99.90;;;;;;5061800;28;20453;-76
2023/09/14 08:50:13;;;;;;;7.03;3.40;;;22.20;99.90;;;;;;5059812;28;20478;-75
2023/09/14 08:52:43;;;;;;;11.10;3.40;;;22.20;99.90;;;;;;5060340;28;20479;-76
2023/09/14 08:55:11;;;;;;;5.97;3.23;;;22.40;99.90;;;;;;5063992;28;20514;-76
2023/09/14 08:57:40;;;;;;;8.80;2.60;;;22.50;99.90;;;;;;5061079;28;20875;-76
2023/09/14 09:00:14;;;;;;;10.50;3.37;;;22.70;99.90;;;;;;5062975;28;20861;-76
2023/09/14 09:02:42;;;;;;;8.03;2.90;;;22.80;99.90;;;;;;5063828;28;20476;-77
2023/09/14 09:05:10;;;;;;;9.33;3.57;;;23.00;99.90;;;;;;5061919;28;20452;-76
2023/09/14 09:07:38;;;;;;;8.20;3.33;;;23.30;99.90;;;;;;5065260;28;20517;-76
2023/09/14 09:10:09;;;;;;;7.27;3.37;;;23.30;99.90;;;;;;5066192;28;20460;-76
2023/09/14 09:12:35;;;;;;;5.23;2.80;;;23.20;99.90;;;;;;5068676;28;20491;-76
2023/09/14 09:15:03;;;;;;;11.20;2.97;;;23.20;99.90;;;;;;5062074;28;20506;-77
2023/09/14 09:17:38;;;;;;;8.47;3.53;;;23.10;99.90;;;;;;5061676;28;20531;-78
2023/09/14 09:20:13;;;;;;;10.30;3.63;;;23.20;99.90;;;;;;5061636;28;20491;-78
2023/09/14 09:22:42;;;;;;;7.50;3.33;;;23.40;99.90;;;;;;5063874;28;20701;-77
2023/09/14 09:25:10;;;;;;;9.30;3.10;;;23.30;99.90;;;;;;5062176;28;20911;-78
2023/09/14 09:27:38;;;;;;;10.87;3.43;;;23.50;99.90;;;;;;5063183;28;20437;-77
2023/09/14 09:30:06;;;;;;;10.10;3.03;;;23.80;99.90;;;;;;5058148;28;20476;-76
2023/09/14 09:32:33;;;;;;;16.87;3.70;;;24.20;99.90;;;;;;5060028;28;20484;-76
2023/09/14 09:35:16;;;;;;;5.77;3.03;;;24.30;99.90;;;;;;5062394;28;20452;-78
2023/09/14 09:37:42;;;;;;;9.83;4.17;;;24.20;99.90;;;;;;5062311;28;20463;-76
2023/09/14 09:40:14;;;;;;;10.67;3.33;;;24.00;99.90;;;;;;5063829;28;20488;-77
2023/09/14 09:42:42;;;;;;;8.23;3.20;;;23.90;99.90;;;;;;5061049;28;20525;-78
2023/09/14 09:45:09;;;;;;;11.00;2.83;;;23.90;99.90;;;;;;5060697;28;20964;-77
2023/09/14 09:47:37;;;;;;;7.20;3.50;;;24.00;99.90;;;;;;5063436;28;20457;-77
2023/09/14 09:50:06;;;;;;;4.10;2.23;;;24.00;99.90;;;;;;5063731;28;20457;-77
2023/09/14 09:52:35;;;;;;;11.43;3.80;;;24.20;99.90;;;;;;5058406;28;20514;-77
2023/09/14 09:55:02;;;;;;;8.77;2.47;;;24.60;99.90;;;;;;5061985;28;20453;-77
2023/09/14 09:57:30;;;;;;;7.27;2.77;;;24.60;99.90;;;;;;5062902;28;20821;-77
2023/09/14 09:59:57;;;;;;;5.60;2.40;;;24.40;99.90;;;;;;5061316;28;20523;-76
2023/09/14 10:02:29;;;;;;;11.33;2.80;;;24.40;99.90;;;;;;5065501;28;20665;-77
2023/09/14 10:04:56;;;;;;;7.57;2.47;;;24.60;99.90;;;;;;5063726;28;20479;-76
2023/09/14 10:07:23;;;;;;;7.13;2.30;;;24.70;99.90;;;;;;5067234;28;20460;-79
2023/09/14 10:09:51;;;;;;;7.67;3.20;;;24.30;99.90;;;;;;5068970;28;20477;-77
2023/09/14 10:12:19;;;;;;;6.40;2.63;;;23.90;99.90;;;;;;5064269;28;20488;-77
2023/09/14 10:14:50;;;;;;;9.13;3.03;;;24.00;99.90;;;;;;5066194;28;20513;-78
2023/09/14 10:17:22;;;;;;;4.13;2.57;;;24.00;99.90;;;;;;5067284;28;20445;-79
2023/09/14 10:19:49;;;;;;;7.87;2.80;;;24.10;99.90;;;;;;5069592;28;20452;-77
2023/09/14 10:22:18;;;;;;;7.80;2.30;;;24.00;99.90;;;;;;5055283;28;20498;-77
2023/09/14 10:24:45;;;;;;;7.73;3.07;;;24.00;99.90;;;;;;5062293;28;20506;-77
2023/09/14 10:27:14;;;;;;;9.97;2.40;;;23.90;99.90;;;;;;5061535;28;20483;-77
2023/09/14 10:29:43;;;;;;;5.13;2.43;;;24.00;99.90;;;;;;5057036;28;20876;-77
2023/09/14 10:32:12;;;;;;;9.83;2.80;;;24.20;99.90;;;;;;5062884;28;20482;-78
2023/09/14 10:34:40;;;;;;;5.87;2.20;;;24.50;99.90;;;;;;5056237;28;20464;-76
2023/09/14 10:37:09;;;;;;;6.70;2.70;;;25.00;99.90;;;;;;5056149;28;20491;-78
2023/09/14 10:39:37;;;;;;;5.73;2.47;;;25.00;99.90;;;;;;5057109;28;20461;-77
2023/09/14 10:42:05;;;;;;;4.90;2.03;;;24.80;99.90;;;;;;5053307;28;20884;-76
2023/09/14 10:44:44;;;;;;;5.40;2.10;;;24.80;99.90;;;;;;5057067;28;20521;-75
2023/09/14 10:47:16;;;;;;;2.83;2.00;;;25.10;99.90;;;;;;5048426;28;20446;-76
2023/09/14 10:49:44;;;;;;;5.17;2.03;;;24.90;99.90;;;;;;5049010;28;20461;-77
2023/09/14 10:52:11;;;;;;;9.13;2.17;;;25.00;99.90;;;;;;5050375;28;20783;-76
2023/09/14 10:54:40;;;;;;;4.43;2.30;;;25.30;99.90;;;;;;5047776;28;20521;-74
2023/09/14 10:57:14;;;;;;;6.40;1.97;;;25.50;99.90;;;;;;5049823;28;20556;-76
2023/09/14 10:59:48;;;;;;;8.23;2.10;;;25.50;99.90;;;;;;5043274;28;20958;-75
2023/09/14 11:02:52;;;;;;;5.67;2.10;;;25.60;99.90;;;;;;5037383;28;20484;-76
2023/09/14 11:05:23;;;;;;;5.43;2.60;;;25.40;99.90;;;;;;5038065;28;20479;-77
2023/09/14 11:07:57;;;;;;;3.00;2.03;;;24.80;99.90;;;;;;5037598;28;20444;-77
2023/09/14 11:10:27;;;;;;;5.60;2.60;;;24.40;99.90;;;;;;5036581;28;21040;-77
2023/09/14 11:13:30;;;;;;;3.50;2.37;;;24.60;99.90;;;;;;4991731;28;1438723;-77
2023/09/14 11:16:07;;;;;;;4.97;2.10;;;25.00;99.90;;;;;;5046318;28;20449;-76
2023/09/14 11:18:52;;;;;;;6.03;2.27;;;25.10;99.90;;;;;;5039569;28;20440;-84
2023/09/14 11:21:44;;;;;;;6.83;2.00;;;24.80;99.90;;;;;;5044284;28;20523;-81
2023/09/14 11:24:12;;;;;;;3.43;2.10;;;24.50;99.90;;;;;;5032441;28;21022;-76
2023/09/14 11:26:45;;;;;;;8.27;2.53;;;24.20;99.90;;;;;;5041993;28;20553;-76
2023/09/14 11:29:21;;;;;;;2.53;1.90;;;23.80;99.90;;;;;;5038186;28;20449;-78
2023/09/14 11:32:00;;;;;;;3.60;2.13;;;23.60;99.90;;;;;;5050233;28;20563;-76
2023/09/14 11:34:29;;;;;;;4.53;3.10;;;23.40;99.90;;;;;;5048189;28;20459;-77
2023/09/14 11:37:01;;;;;;;4.90;2.20;;;23.30;99.90;;;;;;5050230;28;21012;-76
2023/09/14 11:39:29;;;;;;;4.93;2.17;;;23.10;99.90;;;;;;5049654;28;20540;-75
2023/09/14 11:42:00;;;;;;;6.57;2.77;;;23.30;99.90;;;;;;5049913;28;20488;-75
2023/09/14 11:44:29;;;;;;;3.93;2.10;;;23.90;99.90;;;;;;5050678;28;20444;-75
2023/09/14 11:46:59;;;;;;;4.33;2.90;;;24.50;99.90;;;;;;5049989;28;21080;-75
2023/09/14 11:49:29;;;;;;;7.80;2.40;;;24.80;99.90;;;;;;5050446;28;20460;-75
2023/09/14 11:51:56;;;;;;;4.80;2.50;;;24.70;99.90;;;;;;5050125;28;20464;-75
2023/09/14 11:54:30;;;;;;;8.47;2.73;;;24.40;99.90;;;;;;5051671;28;20452;-75
2023/09/14 11:57:00;;;;;;;5.23;2.50;;;24.00;99.90;;;;;;5048773;28;20465;-75
2023/09/14 11:59:31;;;;;;;3.73;2.20;;;23.80;99.90;;;;;;5050702;28;20452;-75
2023/09/14 12:02:03;;;;;;;4.30;2.20;;;23.70;99.90;;;;;;5047765;28;21053;-77
2023/09/14 12:04:31;;;;;;;3.70;2.17;;;23.80;99.90;;;;;;5049173;28;20478;-77
2023/09/14 12:06:59;;;;;;;6.27;2.20;;;24.20;99.90;;;;;;5049175;28;20452;-76
2023/09/14 12:09:42;;;;;;;5.20;2.03;;;24.50;99.90;;;;;;5052483;28;20541;-77
2023/09/14 12:12:25;;;;;;;11.60;2.30;;;25.00;99.90;;;;;;5044434;28;20920;-76
2023/09/14 12:14:52;;;;;;;4.07;2.07;;;25.30;99.90;;;;;;5048103;28;20456;-76
2023/09/14 12:17:21;;;;;;;5.13;2.17;;;25.70;99.90;;;;;;5049850;28;21024;-77
2023/09/14 12:19:50;;;;;;;6.30;2.20;;;26.10;99.90;;;;;;5051478;28;20471;-77
2023/09/14 12:22:21;;;;;;;4.93;1.87;;;26.50;99.90;;;;;;5051684;28;20571;-76
2023/09/14 12:24:51;;;;;;;5.90;2.33;;;26.70;99.90;;;;;;5053787;28;20464;-76
2023/09/14 12:27:19;;;;;;;4.43;2.53;;;26.70;99.90;;;;;;5053873;28;20949;-77
2023/09/14 12:29:48;;;;;;;4.13;2.73;;;26.60;99.90;;;;;;5053436;28;20448;-77
2023/09/14 12:32:18;;;;;;;6.03;2.47;;;25.90;99.90;;;;;;5053917;28;21017;-77
2023/09/14 12:34:46;;;;;;;7.07;2.90;;;25.30;99.90;;;;;;5053971;28;20463;-77
2023/09/14 12:37:17;;;;;;;5.87;2.30;;;24.60;99.90;;;;;;5053177;28;20463;-76
2023/09/14 12:39:51;;;;;;;4.77;2.10;;;24.40;99.90;;;;;;5053486;28;20460;-75
2023/09/14 12:42:24;;;;;;;3.53;2.13;;;24.40;99.90;;;;;;5053150;28;20850;-79
2023/09/14 12:44:55;;;;;;;4.00;2.00;;;24.70;99.90;;;;;;5051102;28;20902;-76
2023/09/14 12:47:22;;;;;;;5.17;2.10;;;24.60;99.90;;;;;;5053071;28;20457;-77
2023/09/14 12:49:49;;;;;;;2.30;2.10;;;24.20;99.90;;;;;;5055738;28;20452;-76
2023/09/14 12:52:17;;;;;;;3.50;2.50;;;24.00;99.90;;;;;;5053370;28;20482;-76